Mylo, North Dakota
Current Conditions -  °F | °C
As of 5:55 PM on Friday 31 Oct 2014 (Local Time) from K06D Reporting Station
Clear Clear  
Wind Chill: 23°   Ceiling: Unl
Heat Index: 34°   Visibility: 10mi
Dew Point: 14°   Wind: 17mph
Humidity: 44%   Direction: 160°SSE
Pressure: 30.23"   Gusts: 30mph
Location:  48.64°N, 99.62°W
Report Text: K06D 312255Z AUTO 16015G26KT 10SM CLR 01/M10 A3023 RMK AO2
Loading
Personal Weather Stations






























Interactive Weather Map
Tropical Storm Tracking
New forecast layout! Learn more

10-Day Weather Forecast

Advertisements
Track Severe Weather on mobile